createdAt,value
2023-03-21T06:27:25.101Z,57.20
2023-03-21T06:28:01.766Z,57.60
2023-03-21T06:28:38.181Z,57.50
2023-03-21T06:29:12.196Z,57.50
2023-03-21T06:29:49.609Z,57.40
2023-03-21T06:30:23.673Z,57.30
2023-03-21T06:31:22.846Z,57.20
2023-03-21T06:31:57.961Z,57.20
2023-03-21T06:32:31.598Z,57.10
2023-03-21T06:33:14.956Z,57.10
2023-03-21T06:33:50.200Z,57.20
2023-03-21T06:34:23.932Z,57.20
2023-03-21T06:34:58.692Z,57.10
2023-03-21T06:35:34.267Z,57.00
2023-03-21T06:36:09.848Z,57.10
2023-03-21T06:36:45.405Z,57.10
2023-03-21T06:37:20.176Z,57.00
2023-03-21T06:37:54.687Z,56.90
2023-03-21T06:38:29.839Z,56.90
2023-03-21T06:39:04.552Z,56.90
2023-03-21T06:39:38.101Z,57.00
2023-03-21T06:40:16.209Z,57.00
2023-03-21T06:40:50.043Z,57.00
2023-03-21T06:41:24.702Z,57.00
2023-03-21T06:42:12.274Z,57.10
2023-03-21T06:42:47.318Z,57.00
2023-03-21T06:43:20.945Z,57.10
2023-03-21T06:43:57.114Z,57.00
2023-03-21T06:44:36.339Z,57.40
2023-03-21T06:45:15.093Z,56.90
2023-03-21T06:45:50.171Z,57.00
2023-03-21T06:46:25.489Z,57.10
2023-03-21T06:46:59.465Z,57.20
2023-03-21T06:47:33.271Z,57.10
2023-03-21T06:48:10.591Z,57.10
2023-03-21T06:48:55.488Z,57.10
2023-03-21T06:49:31.676Z,57.20
2023-03-21T06:50:12.891Z,57.20
2023-03-21T06:50:49.822Z,57.10
2023-03-21T06:51:25.537Z,57.10
2023-03-21T06:52:10.242Z,57.10
2023-03-21T06:52:47.138Z,57.10
2023-03-21T06:53:25.106Z,57.00
2023-03-21T06:54:29.564Z,56.90
2023-03-21T06:55:10.044Z,57.20
2023-03-21T06:55:50.963Z,57.30
2023-03-21T06:56:24.597Z,57.40
2023-03-21T06:56:58.762Z,57.50
2023-03-21T06:57:37.773Z,57.60
2023-03-21T06:58:13.843Z,57.60
2023-03-21T06:58:49.159Z,57.50
2023-03-21T06:59:43.800Z,57.60
2023-03-21T07:00:28.085Z,57.60
2023-03-21T07:01:04.204Z,57.70
2023-03-21T07:01:43.989Z,57.70
2023-03-21T07:02:17.733Z,58.00
2023-03-21T07:02:58.115Z,57.80
2023-03-21T07:03:33.114Z,57.80
2023-03-21T07:04:08.291Z,57.80
2023-03-21T07:04:42.799Z,57.90
2023-03-21T07:05:23.259Z,57.90
2023-03-21T07:05:57.546Z,58.10
2023-03-21T07:06:31.984Z,58.10
2023-03-21T07:07:06.704Z,58.20
2023-03-21T07:07:40.312Z,58.30
2023-03-21T07:08:16.061Z,58.20
2023-03-21T07:08:50.736Z,58.20
2023-03-21T07:09:28.734Z,58.10
2023-03-21T07:10:09.802Z,57.80
2023-03-21T07:11:00.949Z,57.80
2023-03-21T07:11:37.434Z,57.60
2023-03-21T07:12:11.791Z,57.30
2023-03-21T07:13:05.188Z,57.00
2023-03-21T07:13:58.122Z,56.40
2023-03-21T07:14:34.654Z,55.90
2023-03-21T07:15:11.460Z,55.80
2023-03-21T07:15:47.018Z,55.70
2023-03-21T07:16:22.453Z,55.90
2023-03-21T07:16:59.415Z,55.40
2023-03-21T07:17:32.884Z,55.40
2023-03-21T07:18:17.238Z,55.50
2023-03-21T07:18:52.182Z,55.30
2023-03-21T07:19:26.465Z,55.40
2023-03-21T07:20:01.858Z,54.70
2023-03-21T07:20:35.297Z,54.70
2023-03-21T07:21:12.386Z,55.10
2023-03-21T07:21:47.005Z,54.50
2023-03-21T07:22:22.879Z,54.50
2023-03-21T07:22:57.300Z,54.60
2023-03-21T07:23:34.486Z,54.40
2023-03-21T07:24:08.900Z,53.80
2023-03-21T07:25:57.123Z,51.20
2023-03-21T07:26:32.226Z,51.60
2023-03-21T07:27:06.341Z,51.20
2023-03-21T07:27:41.661Z,50.90
2023-03-21T07:28:15.236Z,50.80
2023-03-21T07:28:49.993Z,50.30
2023-03-21T07:29:23.895Z,48.90
2023-03-21T07:29:57.780Z,48.50
2023-03-21T07:30:33.878Z,48.20
2023-03-21T07:35:19.280Z,44.70
2023-03-21T07:35:58.624Z,44.90
2023-03-21T07:36:32.633Z,44.20
2023-03-21T07:37:08.187Z,44.00
2023-03-21T07:37:42.084Z,43.30
2023-03-21T07:38:17.022Z,42.90
2023-03-21T07:38:52.140Z,42.90
2023-03-21T07:39:32.851Z,43.00
2023-03-21T07:40:11.238Z,42.90
2023-03-21T07:40:46.309Z,43.20
2023-03-21T07:41:20.467Z,43.20
2023-03-21T07:41:59.755Z,42.80
2023-03-21T07:42:43.342Z,43.00
2023-03-21T07:43:21.613Z,43.40
2023-03-21T07:43:58.519Z,43.20
2023-03-21T07:44:40.680Z,43.40
2023-03-21T07:45:16.588Z,43.60
2023-03-21T07:45:53.953Z,43.80
2023-03-21T07:46:32.378Z,43.90
2023-03-21T07:47:07.382Z,44.40
2023-03-21T07:47:41.807Z,44.60
2023-03-21T07:48:18.151Z,44.80
2023-03-21T07:48:52.617Z,45.00
2023-03-21T07:49:27.328Z,45.20
2023-03-21T07:50:03.432Z,45.70
2023-03-21T07:50:37.484Z,46.00
2023-03-21T07:51:14.255Z,46.20
2023-03-21T07:51:49.264Z,46.50
2023-03-21T07:52:22.582Z,46.70
2023-03-21T07:52:58.035Z,46.80
2023-03-21T07:53:32.907Z,46.90
2023-03-21T07:54:07.996Z,47.00
2023-03-21T07:54:42.224Z,47.30
2023-03-21T07:55:17.846Z,47.40
2023-03-21T07:55:53.400Z,47.70
2023-03-21T07:56:27.380Z,48.10
2023-03-21T07:57:01.699Z,48.40
2023-03-21T07:57:36.698Z,48.70
2023-03-21T07:58:10.673Z,49.00
2023-03-21T07:58:45.976Z,49.00
2023-03-21T07:59:20.220Z,49.40
2023-03-21T07:59:54.741Z,49.70
2023-03-21T08:00:31.152Z,49.90
2023-03-21T08:01:06.952Z,50.10
2023-03-21T08:01:42.505Z,50.20
2023-03-21T09:55:56.472Z,60.70
2023-03-21T09:56:32.513Z,61.00
2023-03-21T09:57:20.334Z,60.60
2023-03-21T09:58:06.373Z,59.70
2023-03-21T09:58:45.390Z,58.90
2023-03-21T09:59:28.007Z,58.40
2023-03-21T10:00:14.918Z,57.90
2023-03-21T10:00:57.280Z,57.30
2023-03-21T10:01:33.216Z,56.40
2023-03-21T10:02:32.397Z,55.50
2023-03-21T10:03:16.800Z,53.90
2023-03-21T10:03:52.631Z,53.20
2023-03-21T10:04:28.295Z,52.50
2023-03-21T10:05:01.785Z,52.30
2023-03-21T10:06:58.608Z,50.40
2023-03-21T10:07:37.873Z,50.80
2023-03-21T10:08:20.275Z,50.50
2023-03-21T10:08:57.159Z,49.90
2023-03-21T10:09:35.443Z,49.70
2023-03-21T10:10:16.234Z,49.50
2023-03-21T10:10:55.440Z,49.30
2023-03-21T10:11:32.910Z,48.90
2023-03-21T10:12:13.041Z,48.70
2023-03-21T10:12:49.119Z,48.50
2023-03-21T10:13:27.692Z,48.20
2023-03-21T10:14:07.582Z,48.00
2023-03-21T10:14:43.778Z,47.80
2023-03-21T10:15:22.432Z,47.10
2023-03-21T10:15:59.403Z,47.00
2023-03-21T10:16:36.888Z,46.60
2023-03-21T10:17:22.663Z,46.30
2023-03-21T10:18:01.762Z,45.60
2023-03-21T10:18:37.870Z,45.50
2023-03-21T10:19:14.241Z,45.40
2023-03-21T10:19:49.178Z,45.10
2023-03-21T10:20:26.714Z,45.20
2023-03-21T10:21:00.914Z,45.30
2023-03-21T10:21:59.023Z,45.40
2023-03-21T10:22:29.863Z,45.50
2023-03-21T10:23:07.160Z,45.50
2023-03-21T10:23:41.916Z,45.40
2023-03-21T10:24:19.983Z,45.60
2023-03-21T10:24:55.148Z,45.70
2023-03-21T10:25:34.361Z,45.80
2023-03-21T10:26:14.730Z,46.00
2023-03-21T10:26:52.716Z,46.30
2023-03-21T10:27:26.462Z,46.60
2023-03-21T10:28:01.874Z,46.80
2023-03-21T10:28:52.073Z,47.10
2023-03-21T10:29:30.580Z,47.20
2023-03-21T10:30:08.944Z,47.60
2023-03-21T10:30:48.401Z,47.80
2023-03-21T10:31:26.921Z,47.80
2023-03-21T10:32:02.902Z,47.80
2023-03-21T10:32:36.860Z,48.00
2023-03-21T10:33:15.631Z,48.30
2023-03-21T10:33:51.331Z,48.30
2023-03-21T10:34:33.119Z,48.30
2023-03-21T10:35:11.071Z,48.60
2023-03-21T10:35:49.024Z,48.80
2023-03-21T10:36:25.945Z,48.90
2023-03-21T10:37:02.163Z,49.10
2023-03-21T10:37:37.279Z,49.30
2023-03-21T10:38:18.615Z,49.50
2023-03-21T10:38:57.818Z,49.70
2023-03-21T10:39:37.833Z,49.90
2023-03-21T10:40:17.405Z,50.40
2023-03-21T10:40:52.656Z,50.40
2023-03-21T10:41:27.222Z,50.50
2023-03-21T10:42:02.201Z,50.60
2023-03-21T10:42:37.316Z,50.70
2023-03-21T10:43:34.353Z,50.60
2023-03-21T10:44:15.233Z,50.70
2023-03-21T10:44:52.006Z,50.90
2023-03-21T10:45:27.766Z,51.10
2023-03-21T10:46:07.660Z,51.10
2023-03-21T10:46:53.708Z,51.30
2023-03-21T10:47:30.821Z,51.50
2023-03-21T10:48:09.661Z,51.60
2023-03-21T10:48:47.359Z,51.80
2023-03-21T10:49:22.327Z,51.90
2023-03-21T10:50:07.431Z,52.10
2023-03-21T10:50:43.159Z,52.10
2023-03-21T10:51:22.321Z,52.10
2023-03-21T10:51:59.505Z,52.20
2023-03-21T10:52:36.441Z,52.30
2023-03-21T10:53:21.391Z,52.40
2023-03-21T10:53:58.477Z,52.50
2023-03-21T10:54:33.159Z,52.40
2023-03-21T10:55:18.478Z,52.30
2023-03-21T10:55:57.445Z,52.40
2023-03-21T10:56:36.302Z,52.40
2023-03-21T10:57:14.197Z,52.40
2023-03-21T10:57:49.048Z,52.70
2023-03-21T10:58:27.985Z,52.60
2023-03-21T10:59:04.442Z,52.50
2023-03-21T10:59:42.413Z,52.60
2023-03-21T11:00:23.123Z,52.60
2023-03-21T11:01:00.018Z,52.60
2023-03-21T11:01:39.511Z,52.70
2023-03-21T11:02:20.964Z,52.80
2023-03-21T11:02:54.985Z,52.90
2023-03-21T11:03:32.813Z,53.00
2023-03-21T11:04:16.659Z,53.00
2023-03-21T11:04:52.219Z,53.00
2023-03-21T11:05:35.276Z,53.20
2023-03-21T11:06:16.020Z,53.00
2023-03-21T11:06:55.517Z,53.00
2023-03-21T11:07:31.196Z,52.80
2023-03-21T11:08:12.469Z,52.90
2023-03-21T11:08:49.633Z,52.90
2023-03-21T11:09:26.755Z,53.10
2023-03-21T11:10:01.501Z,53.20
2023-03-21T11:10:38.655Z,53.30
2023-03-21T11:11:20.549Z,53.30
2023-03-21T11:11:56.519Z,53.30
2023-03-21T11:12:33.438Z,53.50
2023-03-21T11:13:16.984Z,53.30
2023-03-21T11:14:00.245Z,53.20
2023-03-21T11:14:38.468Z,53.10
2023-03-21T11:15:31.041Z,53.30
2023-03-21T11:16:09.987Z,53.30
2023-03-21T11:16:46.397Z,53.20
2023-03-21T11:17:26.526Z,53.00
2023-03-21T11:18:02.752Z,52.80
2023-03-21T11:18:42.531Z,52.90
2023-03-21T11:19:19.518Z,53.20
2023-03-21T11:19:55.447Z,53.30
2023-03-21T11:20:33.722Z,53.40
2023-03-21T11:21:11.889Z,53.40
2023-03-21T11:21:45.573Z,53.50
2023-03-21T11:22:23.814Z,53.60
2023-03-21T11:22:58.352Z,53.40
2023-03-21T11:23:35.500Z,53.30
2023-03-21T11:24:16.411Z,53.10
2023-03-21T11:24:52.965Z,53.00
2023-03-21T11:25:36.308Z,52.80
2023-03-21T11:26:12.885Z,52.40
2023-03-21T11:26:48.808Z,52.40
2023-03-21T11:27:23.044Z,52.40
2023-03-21T11:27:57.548Z,52.20
2023-03-21T11:28:39.036Z,52.30
2023-03-21T11:29:25.423Z,52.40
2023-03-21T11:30:02.787Z,52.30
2023-03-21T11:30:37.021Z,52.40
2023-03-21T11:31:11.851Z,52.60
2023-03-21T11:31:48.156Z,52.40
2023-03-21T11:32:26.041Z,52.20
2023-03-21T11:33:04.883Z,51.80
2023-03-21T11:33:45.071Z,52.00
2023-03-21T11:34:29.234Z,51.90
2023-03-21T11:35:06.330Z,51.90
2023-03-21T11:35:41.436Z,51.80
2023-03-21T11:36:34.965Z,51.90
2023-03-21T11:37:21.435Z,51.50
2023-03-21T11:37:56.626Z,51.30
2023-03-21T11:38:33.715Z,51.00
2023-03-21T11:39:30.961Z,51.00
2023-03-21T11:40:21.659Z,50.90
2023-03-21T11:41:00.194Z,51.10
2023-03-21T11:41:36.698Z,50.60
2023-03-21T11:42:29.247Z,50.70
2023-03-21T11:43:05.343Z,50.70
2023-03-21T11:43:41.119Z,50.10
2023-03-21T11:44:28.669Z,50.00
2023-03-21T11:45:13.948Z,50.10
2023-03-21T11:45:57.909Z,50.30
2023-03-21T11:46:34.236Z,50.60
2023-03-21T11:47:12.017Z,50.70
2023-03-21T11:47:47.588Z,50.90
2023-03-21T11:48:22.713Z,50.90
2023-03-21T11:48:59.664Z,50.80
2023-03-21T11:49:33.925Z,50.80
2023-03-21T11:50:20.403Z,50.50
2023-03-21T11:51:01.309Z,50.50
2023-03-21T11:51:43.018Z,50.60
2023-03-21T11:52:24.502Z,50.60
2023-03-21T11:53:17.927Z,50.60
2023-03-21T11:54:05.206Z,50.80
2023-03-21T11:54:53.369Z,50.70
2023-03-21T11:55:40.566Z,50.70
2023-03-21T11:56:26.757Z,50.90
2023-03-21T11:57:06.338Z,50.40
2023-03-21T11:57:50.338Z,50.50
2023-03-21T11:58:47.003Z,50.60
2023-03-21T11:59:34.693Z,50.60
2023-03-21T12:00:17.072Z,50.80
2023-03-21T12:01:01.762Z,51.00
2023-03-21T12:01:42.037Z,51.20
2023-03-21T12:02:37.550Z,51.30
2023-03-21T12:03:47.086Z,51.20
2023-03-21T12:04:38.255Z,51.20
2023-03-21T12:05:20.721Z,51.20
2023-03-21T12:05:58.308Z,51.10
2023-03-21T12:06:36.915Z,51.20
2023-03-21T12:07:37.732Z,51.20
2023-03-21T12:08:24.596Z,51.10
2023-03-21T12:09:20.213Z,51.10
2023-03-21T12:10:01.989Z,51.20
2023-03-21T12:10:46.670Z,51.20
2023-03-21T12:11:29.408Z,51.20
2023-03-21T12:12:13.332Z,51.20
2023-03-21T12:12:57.202Z,51.20
2023-03-21T12:13:47.484Z,51.10
2023-03-21T12:14:29.182Z,50.90
2023-03-21T12:15:13.238Z,51.00
2023-03-21T12:15:59.030Z,51.10
2023-03-21T12:16:47.824Z,51.10
2023-03-21T12:17:38.487Z,50.90
2023-03-21T12:18:24.400Z,51.00
2023-03-21T12:19:14.769Z,51.00
2023-03-21T12:20:31.832Z,51.10
2023-03-21T12:21:12.016Z,51.20
2023-03-21T12:21:55.053Z,51.20
2023-03-21T12:22:37.207Z,51.20
2023-03-21T12:23:31.527Z,50.90
2023-03-21T12:24:12.665Z,50.70
2023-03-21T12:24:55.374Z,50.50
2023-03-21T12:25:34.628Z,50.50
2023-03-21T12:26:18.493Z,50.50
2023-03-21T12:27:01.770Z,51.20
2023-03-21T12:27:45.341Z,50.80
2023-03-21T12:28:33.484Z,50.80
2023-03-21T12:29:27.338Z,50.80
2023-03-21T12:30:21.549Z,50.70
2023-03-21T12:31:07.325Z,50.50
2023-03-21T12:31:58.300Z,50.60
2023-03-21T12:32:50.681Z,50.30
2023-03-21T12:33:40.920Z,50.30
2023-03-21T12:34:28.479Z,50.30
2023-03-21T12:35:35.324Z,50.10
2023-03-21T12:36:20.064Z,50.20
2023-03-21T12:37:10.684Z,50.30
2023-03-21T12:37:57.781Z,50.30
2023-03-21T12:38:43.936Z,50.20
2023-03-21T12:39:31.207Z,50.40
2023-03-21T12:40:15.883Z,50.40
2023-03-21T12:41:08.027Z,50.50
2023-03-21T12:41:47.869Z,51.10
2023-03-21T12:42:57.341Z,50.40
2023-03-21T12:43:48.654Z,49.90
2023-03-21T12:44:24.747Z,49.90
2023-03-21T12:45:15.251Z,49.90
2023-03-21T12:45:53.599Z,49.90
2023-03-21T12:46:34.658Z,50.00
2023-03-21T12:47:17.815Z,49.90
2023-03-21T12:48:02.446Z,49.60
2023-03-21T12:48:45.542Z,49.30
2023-03-21T12:49:23.731Z,49.20
2023-03-21T12:50:02.560Z,49.00
2023-03-21T12:50:39.743Z,49.00
2023-03-21T12:51:16.962Z,49.10
2023-03-21T12:51:56.203Z,49.10
2023-03-21T12:52:38.530Z,49.00
2023-03-21T12:53:31.061Z,49.10
2023-03-21T12:54:16.554Z,49.00
2023-03-21T12:54:54.214Z,49.00
